createdAt,value
2022-12-06T00:02:04.490Z,2.80
2022-12-06T00:04:45.694Z,2.70
2022-12-06T00:07:21.879Z,2.70
2022-12-06T00:10:00.721Z,2.70
2022-12-06T00:12:40.104Z,2.70
2022-12-06T00:15:18.538Z,4.80
2022-12-06T00:17:56.912Z,2.70
2022-12-06T00:20:38.178Z,2.80
2022-12-06T00:23:20.349Z,2.70
2022-12-06T00:25:58.887Z,2.80
2022-12-06T00:28:35.305Z,2.80
2022-12-06T00:31:16.619Z,2.80
2022-12-06T00:33:56.295Z,2.80
2022-12-06T00:36:39.178Z,2.80
2022-12-06T00:39:17.157Z,2.80
2022-12-06T00:41:59.113Z,2.80
2022-12-06T00:44:38.087Z,3.70
2022-12-06T00:47:17.132Z,2.80
2022-12-06T00:49:55.277Z,2.90
2022-12-06T00:52:33.809Z,2.90
2022-12-06T00:55:13.058Z,2.90
2022-12-06T00:58:01.160Z,2.90
2022-12-06T01:00:44.412Z,2.90
2022-12-06T01:03:23.108Z,4.60
2022-12-06T01:06:02.191Z,2.90
2022-12-06T01:08:43.573Z,3.30
2022-12-06T01:11:27.367Z,3.00
2022-12-06T01:14:08.607Z,3.00
2022-12-06T01:16:48.105Z,3.40
2022-12-06T01:19:29.987Z,3.00
2022-12-06T01:22:12.356Z,3.00
2022-12-06T01:24:50.393Z,3.10
2022-12-06T01:27:27.984Z,3.10
2022-12-06T01:30:06.714Z,3.10
2022-12-06T01:32:43.262Z,3.80
2022-12-06T01:35:15.164Z,3.10
2022-12-06T01:37:51.320Z,3.20
2022-12-06T01:40:33.002Z,3.10
2022-12-06T01:43:13.046Z,3.10
2022-12-06T01:45:55.938Z,3.10
2022-12-06T01:48:50.781Z,3.10
2022-12-06T01:51:32.299Z,3.30
2022-12-06T01:54:15.915Z,3.30
2022-12-06T01:56:57.766Z,3.10
2022-12-06T01:59:37.275Z,3.10
2022-12-06T02:02:19.723Z,3.10
2022-12-06T02:04:59.140Z,3.10
2022-12-06T02:07:40.905Z,3.10
2022-12-06T02:10:23.155Z,3.80
2022-12-06T02:13:03.456Z,3.20
2022-12-06T02:15:48.271Z,2.70
2022-12-06T02:18:30.101Z,3.20
2022-12-06T02:21:24.320Z,3.20
2022-12-06T02:24:17.351Z,3.20
2022-12-06T02:27:10.414Z,3.30
2022-12-06T02:30:06.071Z,3.30
2022-12-06T02:32:54.870Z,3.30
2022-12-06T02:35:50.302Z,3.30
2022-12-06T02:38:41.828Z,3.30
2022-12-06T02:41:35.225Z,3.30
2022-12-06T02:44:08.994Z,3.70
2022-12-06T02:46:49.422Z,3.40
2022-12-06T02:49:29.568Z,4.20
2022-12-06T02:52:05.258Z,3.40
2022-12-06T02:54:41.476Z,3.40
2022-12-06T02:57:19.105Z,3.40
2022-12-06T03:00:03.931Z,3.40
2022-12-06T03:02:40.313Z,3.40
2022-12-06T03:05:36.153Z,3.40
2022-12-06T03:08:12.427Z,3.40
2022-12-06T03:10:53.785Z,3.40
2022-12-06T03:13:36.297Z,3.50
2022-12-06T03:16:17.543Z,3.40
2022-12-06T03:19:02.842Z,3.40
2022-12-06T03:21:59.269Z,3.40
2022-12-06T03:24:37.268Z,3.60
2022-12-06T03:27:28.827Z,3.50
2022-12-06T03:30:05.379Z,3.50
2022-12-06T03:32:41.321Z,3.40
2022-12-06T03:35:17.327Z,3.50
2022-12-06T03:37:58.126Z,3.50
2022-12-06T03:40:50.180Z,3.60
2022-12-06T03:43:31.932Z,3.50
2022-12-06T03:46:12.512Z,3.50
2022-12-06T03:48:52.717Z,3.60
2022-12-06T03:51:33.353Z,3.50
2022-12-06T03:54:12.634Z,3.70
2022-12-06T03:56:54.825Z,3.50
2022-12-06T03:59:36.674Z,3.60
2022-12-06T04:02:15.245Z,3.70
2022-12-06T04:04:57.145Z,3.70
2022-12-06T04:07:33.243Z,3.70
2022-12-06T04:10:12.655Z,3.80
2022-12-06T04:13:09.230Z,3.80
2022-12-06T04:15:48.407Z,3.80
2022-12-06T04:18:26.369Z,3.80
2022-12-06T04:21:16.500Z,4.10
2022-12-06T04:23:51.489Z,3.90
2022-12-06T04:26:29.899Z,3.90
2022-12-06T04:29:23.202Z,4.00
2022-12-06T04:32:15.875Z,4.00
2022-12-06T04:35:07.631Z,4.00
2022-12-06T04:38:00.275Z,4.00
2022-12-06T04:40:32.186Z,4.10
2022-12-06T04:43:20.475Z,4.00
2022-12-06T04:45:52.440Z,4.10
2022-12-06T04:48:33.965Z,4.10
2022-12-06T04:51:14.425Z,4.10
2022-12-06T04:53:50.715Z,4.30
2022-12-06T04:56:22.970Z,4.10
2022-12-06T04:58:58.577Z,4.20
2022-12-06T05:01:35.968Z,4.40
2022-12-06T05:04:17.158Z,4.20
2022-12-06T05:06:56.363Z,4.30
2022-12-06T05:09:37.708Z,4.30
2022-12-06T05:12:13.407Z,4.30
2022-12-06T05:14:49.091Z,4.30
2022-12-06T05:17:29.625Z,4.30
2022-12-06T05:20:10.998Z,4.30
2022-12-06T05:22:50.173Z,4.30
2022-12-06T05:25:28.474Z,4.30
2022-12-06T05:28:07.102Z,4.30
2022-12-06T05:30:42.757Z,4.30
2022-12-06T05:33:24.598Z,4.30
2022-12-06T05:36:03.024Z,4.30
2022-12-06T05:38:50.996Z,5.00
2022-12-06T05:41:29.394Z,4.30
2022-12-06T05:44:27.507Z,4.20
2022-12-06T05:47:05.918Z,4.20
2022-12-06T05:49:44.996Z,3.30
2022-12-06T05:52:26.724Z,4.20
2022-12-06T05:55:06.151Z,4.20
2022-12-06T05:57:47.885Z,4.50
2022-12-06T06:00:25.402Z,4.30
2022-12-06T06:03:00.515Z,4.30
2022-12-06T06:05:35.516Z,4.30
2022-12-06T06:08:10.325Z,4.30
2022-12-06T06:10:43.196Z,4.40
2022-12-06T06:13:18.624Z,4.30
2022-12-06T06:15:55.237Z,4.40
2022-12-06T06:18:38.528Z,4.20
2022-12-06T06:21:14.236Z,4.40
2022-12-06T06:23:52.887Z,4.20
2022-12-06T06:26:30.420Z,4.40
2022-12-06T06:29:10.151Z,4.30
2022-12-06T06:31:46.657Z,4.20
2022-12-06T06:34:27.303Z,4.20
2022-12-06T06:37:02.973Z,4.30
2022-12-06T06:39:40.491Z,4.20
2022-12-06T06:42:19.097Z,4.20
2022-12-06T06:45:03.996Z,4.10
2022-12-06T06:47:40.221Z,4.20
2022-12-06T06:50:21.677Z,4.10
2022-12-06T06:53:02.823Z,4.10
2022-12-06T06:55:41.219Z,4.60
2022-12-06T06:58:23.181Z,3.90
2022-12-06T07:01:08.718Z,4.00
2022-12-06T07:03:49.448Z,3.90
2022-12-06T07:06:22.662Z,3.90
2022-12-06T07:08:58.451Z,4.10
2022-12-06T07:11:36.106Z,3.90
2022-12-06T07:14:14.861Z,4.10
2022-12-06T07:16:59.406Z,3.90
2022-12-06T07:19:39.081Z,3.80
2022-12-06T07:22:14.987Z,3.90
2022-12-06T07:24:55.199Z,3.90
2022-12-06T07:27:25.639Z,3.70
2022-12-06T07:30:01.631Z,3.70
2022-12-06T07:32:43.079Z,3.60
2022-12-06T07:35:19.454Z,3.70
2022-12-06T07:37:54.346Z,3.60
2022-12-06T07:41:02.767Z,3.80
2022-12-06T07:43:40.901Z,3.70
2022-12-06T07:46:17.775Z,3.80
2022-12-06T07:48:57.303Z,4.10
2022-12-06T07:51:38.684Z,3.90
2022-12-06T07:54:18.643Z,4.20
2022-12-06T07:57:00.393Z,3.90
2022-12-06T07:59:36.945Z,3.90
2022-12-06T08:02:15.164Z,3.90
2022-12-06T08:04:57.860Z,4.00
2022-12-06T08:07:38.961Z,4.20
2022-12-06T08:10:18.101Z,4.80
2022-12-06T08:12:54.547Z,4.10
2022-12-06T08:15:31.647Z,4.10
2022-12-06T08:18:13.059Z,4.10
2022-12-06T08:20:52.287Z,4.20
2022-12-06T08:23:34.193Z,4.00
2022-12-06T08:26:13.716Z,4.60
2022-12-06T08:28:55.434Z,4.20
2022-12-06T08:31:35.323Z,4.00
2022-12-06T08:34:14.288Z,3.80
2022-12-06T08:37:00.241Z,3.90
2022-12-06T08:39:41.865Z,3.80
2022-12-06T08:42:22.111Z,3.70
2022-12-06T08:45:02.973Z,3.70
2022-12-06T08:47:42.184Z,3.70
2022-12-06T08:50:19.966Z,4.70
2022-12-06T08:52:57.671Z,3.80
2022-12-06T08:55:40.803Z,3.80
2022-12-06T08:58:18.986Z,4.40
2022-12-06T09:00:53.730Z,3.60
2022-12-06T09:03:29.432Z,3.60
2022-12-06T09:06:10.344Z,4.20
2022-12-06T09:08:49.998Z,4.70
2022-12-06T09:11:28.562Z,3.60
2022-12-06T09:14:08.257Z,3.60
2022-12-06T09:16:49.520Z,4.20
2022-12-06T09:19:26.460Z,3.70
2022-12-06T09:22:07.764Z,3.70
2022-12-06T09:24:51.262Z,3.70
2022-12-06T09:27:30.228Z,4.70
2022-12-06T09:30:06.471Z,3.70
2022-12-06T09:32:45.157Z,4.30
2022-12-06T09:35:25.070Z,3.60
2022-12-06T09:38:06.768Z,3.60
2022-12-06T09:40:54.024Z,3.60
2022-12-06T09:43:49.420Z,3.70
2022-12-06T09:46:41.306Z,3.80
2022-12-06T09:49:19.857Z,3.80
2022-12-06T09:51:59.450Z,3.80
2022-12-06T09:55:00.247Z,3.80
2022-12-06T09:57:52.674Z,3.90
2022-12-06T10:00:30.188Z,3.90
2022-12-06T10:03:19.516Z,3.90
2022-12-06T10:06:03.911Z,3.90
2022-12-06T10:08:59.518Z,4.00
2022-12-06T10:12:07.867Z,4.10
2022-12-06T10:14:47.891Z,4.30
2022-12-06T10:17:55.749Z,4.40
2022-12-06T10:20:34.484Z,4.50
2022-12-06T10:23:44.787Z,4.70
2022-12-06T10:26:20.233Z,4.80
2022-12-06T10:28:57.642Z,4.80
2022-12-06T10:31:34.335Z,4.90
2022-12-06T10:34:14.959Z,5.10
2022-12-06T10:37:04.897Z,5.10
2022-12-06T10:40:11.364Z,5.10
2022-12-06T10:43:10.083Z,5.10
2022-12-06T10:46:22.237Z,5.20
2022-12-06T10:48:54.856Z,5.20
2022-12-06T10:51:37.450Z,5.00
2022-12-06T10:54:24.466Z,5.10
2022-12-06T10:57:05.289Z,5.20
2022-12-06T10:59:43.544Z,5.30
2022-12-06T11:02:26.250Z,5.20
2022-12-06T11:04:58.303Z,5.20
2022-12-06T11:07:36.787Z,5.20
2022-12-06T11:10:17.469Z,5.30
2022-12-06T11:12:55.561Z,5.30
2022-12-06T11:15:31.268Z,5.40
2022-12-06T11:18:32.309Z,5.50
2022-12-06T11:21:07.544Z,5.50
2022-12-06T11:23:59.235Z,5.60
2022-12-06T11:26:35.302Z,5.60
2022-12-06T11:29:15.554Z,5.60
2022-12-06T11:31:55.141Z,5.60
2022-12-06T11:34:33.915Z,5.60
2022-12-06T11:37:14.855Z,5.60
2022-12-06T11:39:53.602Z,5.60
2022-12-06T11:42:32.923Z,5.60
2022-12-06T11:45:27.456Z,5.60
2022-12-06T11:48:10.117Z,5.40
2022-12-06T11:50:49.723Z,6.30
2022-12-06T11:53:32.416Z,5.40
2022-12-06T11:56:24.109Z,5.40
2022-12-06T11:59:12.114Z,6.00
2022-12-06T12:01:55.335Z,4.90
2022-12-06T12:04:50.506Z,5.50
2022-12-06T12:07:31.908Z,5.60
2022-12-06T12:10:25.229Z,5.40
2022-12-06T12:13:12.923Z,5.40
2022-12-06T12:16:03.595Z,5.30
2022-12-06T12:18:46.358Z,5.40
2022-12-06T12:21:25.277Z,5.50
2022-12-06T12:24:07.135Z,5.50
2022-12-06T12:26:42.491Z,5.60
2022-12-06T12:29:21.452Z,5.70
2022-12-06T12:32:03.168Z,5.70
2022-12-06T12:34:43.046Z,5.70
2022-12-06T12:37:23.526Z,5.80
2022-12-06T12:40:02.740Z,5.90
2022-12-06T12:42:52.725Z,6.00
2022-12-06T12:45:35.284Z,6.00
2022-12-06T12:48:25.511Z,6.40
2022-12-06T12:51:07.668Z,5.80
2022-12-06T12:53:48.838Z,5.90
2022-12-06T12:56:27.171Z,6.00
2022-12-06T12:59:03.484Z,6.10
2022-12-06T13:01:48.372Z,6.20
2022-12-06T13:04:37.340Z,6.40
2022-12-06T13:10:33.468Z,6.40
2022-12-06T13:13:28.487Z,6.60
2022-12-06T13:16:10.201Z,6.60
2022-12-06T13:18:52.199Z,6.60
2022-12-06T13:21:34.677Z,6.70
2022-12-06T13:24:19.342Z,6.60
2022-12-06T13:26:56.470Z,6.60
2022-12-06T13:29:38.226Z,6.60
2022-12-06T13:32:36.837Z,7.20
2022-12-06T13:35:30.256Z,6.50
2022-12-06T13:38:03.432Z,6.40
2022-12-06T13:40:49.415Z,6.40
2022-12-06T13:43:40.323Z,6.40
2022-12-06T13:46:19.666Z,6.40
2022-12-06T13:49:05.836Z,6.40
2022-12-06T13:51:44.277Z,6.50
2022-12-06T13:54:25.177Z,6.40
2022-12-06T13:57:06.598Z,6.40
2022-12-06T13:59:44.478Z,6.40
2022-12-06T14:02:45.899Z,6.50
2022-12-06T14:05:35.489Z,6.40
2022-12-06T14:08:17.165Z,6.30
2022-12-06T14:10:52.485Z,6.40
2022-12-06T14:13:28.023Z,7.00
2022-12-06T14:16:04.393Z,5.40
2022-12-06T14:18:37.544Z,6.20
2022-12-06T14:21:26.989Z,6.20
2022-12-06T14:24:05.507Z,6.10
2022-12-06T14:26:52.497Z,6.10
2022-12-06T14:29:28.298Z,6.10
2022-12-06T14:32:09.520Z,6.00
2022-12-06T14:34:49.514Z,6.00
2022-12-06T14:37:34.221Z,5.90
2022-12-06T14:40:45.218Z,5.70
2022-12-06T14:43:20.320Z,5.60
2022-12-06T14:45:58.043Z,6.50
2022-12-06T14:48:53.912Z,5.20
2022-12-06T14:51:35.870Z,5.60
2022-12-06T14:54:29.949Z,5.10
2022-12-06T14:57:02.520Z,4.90
2022-12-06T15:02:41.450Z,5.60
2022-12-06T15:05:34.055Z,4.60
2022-12-06T15:08:33.075Z,4.60
2022-12-06T15:11:45.602Z,4.40
2022-12-06T15:14:44.659Z,4.40
2022-12-06T15:17:30.710Z,4.30
2022-12-06T15:20:03.679Z,4.50
2022-12-06T15:25:42.270Z,4.60
2022-12-06T15:28:23.427Z,4.10
2022-12-06T15:31:03.049Z,5.00
2022-12-06T15:33:45.195Z,4.30
2022-12-06T15:36:27.988Z,4.30
2022-12-06T15:39:05.755Z,4.50
2022-12-06T15:41:59.527Z,4.40
2022-12-06T15:44:35.291Z,4.50
2022-12-06T15:47:13.704Z,5.00
2022-12-06T15:49:54.796Z,4.60
2022-12-06T15:52:30.605Z,4.70
2022-12-06T15:55:09.334Z,4.70
2022-12-06T15:57:49.840Z,4.80
2022-12-06T16:00:28.839Z,4.80
2022-12-06T16:03:07.003Z,4.80
2022-12-06T16:05:49.857Z,4.90
2022-12-06T16:08:26.638Z,4.80
2022-12-06T16:11:12.669Z,4.80
2022-12-06T16:13:49.743Z,5.00
2022-12-06T16:16:29.408Z,5.00
2022-12-06T16:19:05.561Z,5.00
2022-12-06T16:21:56.470Z,4.90
2022-12-06T16:24:38.294Z,4.90
2022-12-06T16:27:14.606Z,4.90
2022-12-06T16:29:50.475Z,5.20
2022-12-06T16:35:17.754Z,5.10
2022-12-06T16:37:57.508Z,5.20
2022-12-06T16:40:36.222Z,5.30
2022-12-06T16:43:14.348Z,5.30
2022-12-06T16:45:51.484Z,5.20
2022-12-06T16:48:27.673Z,5.20
2022-12-06T16:51:03.498Z,5.20
2022-12-06T16:53:39.664Z,5.20
2022-12-06T16:56:18.453Z,5.10
2022-12-06T16:59:06.164Z,5.00
2022-12-06T17:01:56.844Z,5.40
2022-12-06T17:04:44.073Z,5.10
2022-12-06T17:07:21.380Z,6.20
2022-12-06T17:09:59.816Z,5.00
2022-12-06T17:12:38.798Z,5.00
2022-12-06T17:15:31.743Z,5.00
2022-12-06T17:18:16.122Z,5.00
2022-12-06T17:20:48.554Z,5.00
2022-12-06T17:23:27.228Z,5.00
2022-12-06T17:26:06.395Z,5.00
2022-12-06T17:28:41.085Z,5.00
2022-12-06T17:31:21.705Z,5.00
2022-12-06T17:34:00.572Z,5.00
2022-12-06T17:36:37.547Z,4.90
2022-12-06T17:39:21.861Z,4.90
2022-12-06T17:42:12.881Z,5.00
2022-12-06T17:44:54.098Z,5.60
2022-12-06T17:47:33.437Z,4.90
2022-12-06T17:50:11.635Z,4.80
2022-12-06T17:52:56.627Z,4.90
2022-12-06T17:55:37.867Z,4.80
2022-12-06T17:58:16.700Z,4.90
2022-12-06T18:01:02.476Z,4.80
2022-12-06T18:03:41.344Z,4.70
2022-12-06T18:06:25.799Z,4.80
2022-12-06T18:09:01.494Z,4.70
2022-12-06T18:11:55.185Z,4.70
2022-12-06T18:14:28.893Z,4.70
2022-12-06T18:17:08.402Z,4.70
2022-12-06T18:19:58.878Z,4.70
2022-12-06T18:22:42.544Z,5.70
2022-12-06T18:25:24.431Z,4.90
2022-12-06T18:28:03.347Z,4.80
2022-12-06T18:30:42.555Z,4.80
2022-12-06T18:33:33.363Z,4.90
2022-12-06T18:36:13.493Z,4.80
2022-12-06T18:38:54.331Z,4.90
2022-12-06T18:41:31.858Z,4.90
2022-12-06T18:44:13.324Z,4.90
2022-12-06T18:46:49.592Z,4.90
2022-12-06T18:49:31.368Z,4.90
2022-12-06T18:52:10.093Z,5.00
2022-12-06T18:54:48.786Z,5.00
2022-12-06T18:57:30.570Z,5.10
2022-12-06T19:00:10.535Z,5.00
2022-12-06T19:02:46.353Z,5.10
2022-12-06T19:05:54.161Z,5.10
2022-12-06T19:08:26.512Z,5.10
2022-12-06T19:11:06.542Z,5.10
2022-12-06T19:13:48.251Z,5.10
2022-12-06T19:16:27.980Z,5.10
2022-12-06T19:19:11.443Z,5.10
2022-12-06T19:21:58.767Z,5.20
2022-12-06T19:24:38.801Z,5.20
2022-12-06T19:27:14.183Z,5.10
2022-12-06T19:29:52.380Z,5.10
2022-12-06T19:32:28.229Z,5.20
2022-12-06T19:35:08.545Z,5.10
2022-12-06T19:37:45.529Z,5.10
2022-12-06T19:40:29.099Z,6.10
2022-12-06T19:43:43.501Z,5.10
2022-12-06T19:46:21.756Z,5.10
2022-12-06T19:49:04.456Z,5.10
2022-12-06T19:51:44.422Z,5.10
2022-12-06T19:54:21.879Z,5.10
2022-12-06T19:57:02.274Z,5.10
2022-12-06T19:59:45.782Z,5.00
2022-12-06T20:02:22.724Z,5.10
2022-12-06T20:05:01.587Z,5.00
2022-12-06T20:07:37.014Z,5.10
2022-12-06T20:10:11.892Z,5.10
2022-12-06T20:12:44.585Z,5.00
2022-12-06T20:15:23.080Z,5.10
2022-12-06T20:17:58.300Z,5.20
2022-12-06T20:20:33.353Z,5.10
2022-12-06T20:23:10.519Z,5.20
2022-12-06T20:25:51.134Z,5.10
2022-12-06T20:28:38.710Z,5.10
2022-12-06T20:31:41.831Z,5.40
2022-12-06T20:34:26.573Z,5.10
2022-12-06T20:39:56.614Z,5.10
2022-12-06T20:42:32.414Z,5.10
2022-12-06T20:45:10.030Z,5.10
2022-12-06T20:47:48.695Z,5.10
2022-12-06T20:50:28.917Z,5.10
2022-12-06T20:53:10.210Z,5.10
2022-12-06T20:55:46.089Z,5.00
2022-12-06T20:58:23.295Z,4.90
2022-12-06T21:01:00.177Z,4.90
2022-12-06T21:03:38.724Z,4.90
2022-12-06T21:06:17.167Z,4.90
2022-12-06T21:08:57.672Z,4.90
2022-12-06T21:11:29.021Z,4.80
2022-12-06T21:14:07.903Z,4.80
2022-12-06T21:16:40.412Z,4.50
2022-12-06T21:19:15.451Z,4.80
2022-12-06T21:21:58.460Z,4.70
2022-12-06T21:24:31.114Z,4.70
2022-12-06T21:27:06.987Z,4.80
2022-12-06T21:29:52.708Z,4.70
2022-12-06T21:32:22.705Z,4.70
2022-12-06T21:35:00.515Z,4.70
2022-12-06T21:37:35.029Z,4.90
2022-12-06T21:40:08.498Z,4.70
2022-12-06T21:42:46.140Z,4.70
2022-12-06T21:45:21.272Z,4.70
2022-12-06T21:47:56.363Z,5.00
2022-12-06T21:50:28.759Z,4.60
2022-12-06T21:53:07.770Z,4.50
2022-12-06T21:55:48.487Z,4.50
2022-12-06T21:58:37.984Z,4.50
2022-12-06T22:01:16.963Z,4.60
2022-12-06T22:04:01.713Z,4.50
2022-12-06T22:06:37.672Z,4.50
2022-12-06T22:09:29.645Z,4.50
2022-12-06T22:12:10.998Z,4.60
2022-12-06T22:14:49.039Z,4.50
2022-12-06T22:17:38.961Z,4.60
2022-12-06T22:20:15.508Z,4.60
2022-12-06T22:22:55.376Z,4.50
2022-12-06T22:25:34.463Z,4.50
2022-12-06T22:28:10.318Z,4.50
2022-12-06T22:30:48.011Z,4.50
2022-12-06T22:33:26.722Z,4.50
2022-12-06T22:36:04.669Z,4.60
2022-12-06T22:38:39.091Z,4.60
2022-12-06T22:41:17.913Z,4.60
2022-12-06T22:44:04.730Z,4.60
2022-12-06T22:46:40.651Z,4.60
2022-12-06T22:49:28.740Z,4.60
2022-12-06T22:52:04.734Z,4.60
2022-12-06T22:54:43.136Z,4.60
2022-12-06T22:57:25.584Z,4.60
2022-12-06T23:00:06.694Z,4.60
2022-12-06T23:02:39.546Z,4.60
2022-12-06T23:05:15.762Z,4.60
2022-12-06T23:07:51.768Z,4.60
2022-12-06T23:10:28.914Z,4.70
2022-12-06T23:13:04.587Z,4.60
2022-12-06T23:15:39.393Z,4.60
2022-12-06T23:18:14.352Z,4.60
2022-12-06T23:20:40.981Z,4.60
2022-12-06T23:23:17.467Z,5.10
2022-12-06T23:25:55.812Z,4.70
2022-12-06T23:28:34.762Z,4.70
2022-12-06T23:31:25.165Z,4.70
2022-12-06T23:34:17.607Z,4.70
2022-12-06T23:37:14.395Z,4.70
2022-12-06T23:39:53.633Z,4.80
2022-12-06T23:42:31.382Z,4.80
2022-12-06T23:45:07.617Z,4.80
2022-12-06T23:47:49.379Z,4.90
2022-12-06T23:53:23.977Z,4.80
2022-12-06T23:55:59.473Z,4.80
2022-12-06T23:58:39.121Z,4.90
